createdAt,value
2023-04-13T00:01:38.406Z,0.28
2023-04-13T00:04:27.702Z,0.25
2023-04-13T00:07:17.946Z,0.10
2023-04-13T00:10:08.753Z,0.20
2023-04-13T00:12:58.311Z,0.20
2023-04-13T00:15:46.935Z,0.30
2023-04-13T00:18:35.538Z,0.17
2023-04-13T00:21:25.757Z,0.15
2023-04-13T00:24:16.095Z,0.10
2023-04-13T00:27:04.972Z,0.20
2023-04-13T00:29:56.200Z,0.20
2023-04-13T00:32:46.693Z,0.20
2023-04-13T00:35:35.408Z,0.22
2023-04-13T00:38:27.320Z,0.20
2023-04-13T00:41:17.475Z,0.20
2023-04-13T00:44:06.342Z,0.40
2023-04-13T00:46:56.452Z,0.20
2023-04-13T00:49:45.816Z,0.20
2023-04-13T00:52:38.134Z,0.30
2023-04-13T00:55:27.748Z,0.40
2023-04-13T00:58:18.102Z,0.10
2023-04-13T01:01:06.979Z,0.10
2023-04-13T01:03:55.652Z,0.10
2023-04-13T01:06:50.239Z,0.10
2023-04-13T01:09:41.803Z,0.15
2023-04-13T01:12:36.438Z,0.10
2023-04-13T01:15:27.395Z,0.32
2023-04-13T01:18:16.404Z,0.10
2023-04-13T01:21:06.322Z,0.20
2023-04-13T01:24:06.464Z,0.20
2023-04-13T01:26:59.387Z,0.32
2023-04-13T01:29:50.604Z,0.13
2023-04-13T01:32:39.919Z,0.10
2023-04-13T01:35:29.317Z,0.10
2023-04-13T01:38:18.782Z,0.15
2023-04-13T01:41:08.750Z,0.10
2023-04-13T01:43:57.629Z,0.22
2023-04-13T01:46:49.575Z,0.20
2023-04-13T01:49:38.306Z,0.20
2023-04-13T01:52:28.385Z,0.22
2023-04-13T01:55:17.052Z,0.10
2023-04-13T01:58:07.134Z,0.10
2023-04-13T02:00:56.032Z,0.03
2023-04-13T02:03:46.189Z,0.10
2023-04-13T02:06:35.004Z,0.10
2023-04-13T02:09:23.821Z,0.10
2023-04-13T02:12:12.912Z,0.10
2023-04-13T02:15:02.179Z,0.10
2023-04-13T02:17:50.946Z,0.22
2023-04-13T02:20:47.507Z,0.10
2023-04-13T02:23:36.808Z,0.15
2023-04-13T02:26:26.335Z,0.20
2023-04-13T02:29:15.098Z,0.10
2023-04-13T02:32:03.720Z,0.20
2023-04-13T02:34:53.400Z,0.10
2023-04-13T02:37:43.593Z,0.20
2023-04-13T02:40:32.175Z,0.10
2023-04-13T02:43:21.049Z,0.10
2023-04-13T02:46:09.830Z,0.10
2023-04-13T02:48:58.494Z,0.10
2023-04-13T02:51:47.126Z,0.10
2023-04-13T02:54:37.236Z,0.10
2023-04-13T02:57:25.980Z,0.10
2023-04-13T03:00:16.292Z,0.10
2023-04-13T03:03:06.935Z,0.05
2023-04-13T03:05:55.961Z,0.10
2023-04-13T03:08:44.728Z,0.10
2023-04-13T03:11:34.637Z,0.30
2023-04-13T03:14:23.174Z,0.10
2023-04-13T03:17:13.015Z,0.20
2023-04-13T03:20:02.084Z,0.30
2023-04-13T03:22:51.652Z,0.50
2023-04-13T03:25:40.809Z,0.10
2023-04-13T03:28:30.757Z,0.10
2023-04-13T03:31:20.109Z,0.10
2023-04-13T03:34:08.687Z,0.10
2023-04-13T03:36:57.217Z,0.10
2023-04-13T03:39:46.060Z,0.08
2023-04-13T03:42:34.647Z,0.10
2023-04-13T03:45:24.693Z,0.32
2023-04-13T03:48:13.307Z,0.08
2023-04-13T03:51:01.896Z,0.10
2023-04-13T03:53:50.484Z,0.10
2023-04-13T03:56:39.163Z,0.10
2023-04-13T03:59:27.889Z,0.05
2023-04-13T04:02:18.090Z,0.13
2023-04-13T04:05:10.616Z,0.00
2023-04-13T04:07:59.283Z,0.00
2023-04-13T04:10:47.850Z,0.10
2023-04-13T04:13:36.427Z,0.08
2023-04-13T04:16:25.171Z,0.00
2023-04-13T04:19:15.225Z,0.10
2023-04-13T04:22:07.017Z,0.10
2023-04-13T04:24:59.072Z,0.00
2023-04-13T04:27:49.845Z,0.10
2023-04-13T04:30:38.940Z,0.20
2023-04-13T04:33:27.871Z,0.10
2023-04-13T04:36:18.500Z,0.10
2023-04-13T04:39:07.779Z,0.10
2023-04-13T04:42:02.983Z,0.13
2023-04-13T04:44:52.897Z,0.15
2023-04-13T04:47:43.387Z,0.17
2023-04-13T04:50:33.316Z,0.20
2023-04-13T04:53:23.866Z,0.10
2023-04-13T04:56:12.436Z,0.08
2023-04-13T04:59:01.223Z,0.22
2023-04-13T05:01:50.489Z,0.10
2023-04-13T05:04:41.960Z,0.10
2023-04-13T05:07:30.885Z,0.10
2023-04-13T05:10:20.938Z,0.15
2023-04-13T05:13:09.533Z,0.30
2023-04-13T05:15:58.205Z,0.10
2023-04-13T05:18:48.026Z,0.17
2023-04-13T05:21:37.094Z,0.43
2023-04-13T05:24:25.953Z,0.38
2023-04-13T05:27:16.006Z,0.40
2023-04-13T05:30:05.421Z,0.20
2023-04-13T05:32:54.131Z,0.45
2023-04-13T05:35:43.842Z,0.30
2023-04-13T05:38:33.048Z,0.50
2023-04-13T05:41:21.771Z,0.57
2023-04-13T05:44:11.989Z,0.40
2023-04-13T05:47:02.252Z,0.20
2023-04-13T05:49:50.881Z,0.73
2023-04-13T05:52:39.450Z,0.30
2023-04-13T05:55:28.464Z,0.20
2023-04-13T05:58:18.958Z,0.28
2023-04-13T06:01:12.143Z,0.10
2023-04-13T06:04:03.691Z,0.40
2023-04-13T06:06:52.531Z,0.40
2023-04-13T06:09:41.328Z,0.40
2023-04-13T06:12:30.318Z,0.40
2023-04-13T06:15:19.367Z,0.43
2023-04-13T06:18:12.398Z,0.20
2023-04-13T06:21:00.995Z,0.52
2023-04-13T06:23:50.576Z,0.30
2023-04-13T06:26:39.428Z,0.20
2023-04-13T06:29:28.536Z,0.20
2023-04-13T06:32:19.844Z,0.20
2023-04-13T06:35:10.880Z,0.20
2023-04-13T06:38:01.553Z,0.28
2023-04-13T06:40:50.078Z,0.40
2023-04-13T06:43:38.770Z,0.40
2023-04-13T06:46:27.715Z,0.20
2023-04-13T06:49:16.550Z,0.28
2023-04-13T06:52:06.791Z,0.38
2023-04-13T06:54:55.696Z,0.63
2023-04-13T06:57:44.430Z,0.57
2023-04-13T07:00:33.855Z,0.32
2023-04-13T07:03:23.099Z,0.38
2023-04-13T07:06:18.123Z,0.20
2023-04-13T07:09:09.688Z,0.20
2023-04-13T07:11:58.805Z,0.20
2023-04-13T07:14:47.896Z,0.77
2023-04-13T07:17:36.954Z,0.35
2023-04-13T07:20:26.083Z,0.45
2023-04-13T07:23:14.864Z,0.30
2023-04-13T07:26:05.456Z,0.30
2023-04-13T07:28:54.044Z,0.30
2023-04-13T07:31:43.703Z,0.20
2023-04-13T07:34:32.387Z,0.30
2023-04-13T07:37:20.973Z,0.75
2023-04-13T07:40:11.636Z,0.32
2023-04-13T07:43:01.730Z,0.30
2023-04-13T07:45:50.386Z,0.35
2023-04-13T07:48:39.177Z,0.30
2023-04-13T07:51:28.243Z,0.10
2023-04-13T07:54:17.347Z,0.25
2023-04-13T07:57:06.844Z,0.25
2023-04-13T07:59:56.778Z,0.17
2023-04-13T08:02:46.186Z,0.20
2023-04-13T08:05:37.377Z,0.20
2023-04-13T08:08:26.490Z,0.32
2023-04-13T08:11:15.105Z,0.80
2023-04-13T08:14:03.801Z,0.10
2023-04-13T08:16:54.000Z,0.40
2023-04-13T08:19:42.876Z,0.28
2023-04-13T08:22:31.588Z,0.20
2023-04-13T08:25:20.398Z,0.30
2023-04-13T08:28:09.680Z,0.30
2023-04-13T08:30:58.333Z,0.10
2023-04-13T08:33:48.675Z,0.20
2023-04-13T08:36:37.847Z,0.20
2023-04-13T08:39:27.279Z,0.10
2023-04-13T08:42:16.510Z,0.43
2023-04-13T08:45:05.889Z,0.20
2023-04-13T08:47:54.814Z,0.20
2023-04-13T08:50:45.448Z,0.25
2023-04-13T08:53:34.134Z,0.28
2023-04-13T08:56:30.972Z,0.10
2023-04-13T08:59:28.491Z,0.30
2023-04-13T09:02:17.146Z,0.25
2023-04-13T09:05:16.272Z,0.30
2023-04-13T09:08:08.278Z,0.30
2023-04-13T09:10:58.414Z,0.13
2023-04-13T09:13:51.235Z,0.20
2023-04-13T09:16:41.558Z,0.30
2023-04-13T09:19:34.217Z,0.20
2023-04-13T09:22:22.889Z,0.10
2023-04-13T09:25:23.697Z,0.10
2023-04-13T09:28:18.157Z,0.30
2023-04-13T09:31:07.886Z,0.20
2023-04-13T09:33:56.850Z,0.17
2023-04-13T09:36:54.323Z,0.30
2023-04-13T09:39:44.062Z,0.10
2023-04-13T09:42:34.696Z,0.10
2023-04-13T09:45:24.649Z,0.20
2023-04-13T09:48:20.568Z,0.10
2023-04-13T09:51:09.813Z,0.13
2023-04-13T09:53:58.526Z,0.10
2023-04-13T09:56:48.372Z,0.08
2023-04-13T09:59:38.644Z,0.30
2023-04-13T10:02:27.890Z,0.30
2023-04-13T10:05:17.401Z,0.10
2023-04-13T10:08:07.245Z,0.30
2023-04-13T10:10:55.946Z,0.70
2023-04-13T10:13:49.262Z,0.32
2023-04-13T10:17:10.616Z,0.40
2023-04-13T10:20:01.711Z,0.40
2023-04-13T10:22:51.047Z,0.32
2023-04-13T10:25:50.154Z,0.85
2023-04-13T10:28:44.839Z,0.40
2023-04-13T10:31:38.025Z,0.50
2023-04-13T10:34:28.945Z,0.65
2023-04-13T10:37:21.608Z,0.50
2023-04-13T10:40:14.265Z,0.40
2023-04-13T10:43:03.056Z,0.57
2023-04-13T10:45:51.676Z,0.63
2023-04-13T10:48:42.677Z,0.38
2023-04-13T10:51:41.063Z,0.50
2023-04-13T10:54:31.837Z,0.60
2023-04-13T10:57:20.789Z,0.70
2023-04-13T11:00:22.121Z,0.63
2023-04-13T11:03:16.786Z,0.70
2023-04-13T11:06:06.456Z,0.55
2023-04-13T11:09:01.576Z,0.40
2023-04-13T11:11:54.247Z,0.40
2023-04-13T11:14:47.459Z,0.57
2023-04-13T11:17:36.180Z,0.70
2023-04-13T11:20:34.612Z,0.70
2023-04-13T11:23:24.220Z,0.82
2023-04-13T11:26:14.653Z,0.75
2023-04-13T11:29:05.652Z,0.38
2023-04-13T11:31:54.332Z,0.85
2023-04-13T11:34:43.066Z,0.73
2023-04-13T11:37:32.229Z,0.60
2023-04-13T11:40:23.804Z,0.63
2023-04-13T11:43:12.490Z,0.70
2023-04-13T11:46:02.776Z,0.80
2023-04-13T11:48:53.731Z,0.75
2023-04-13T11:51:42.744Z,0.43
2023-04-13T11:54:31.964Z,0.50
2023-04-13T11:57:20.710Z,0.50
2023-04-13T12:00:18.384Z,0.45
2023-04-13T12:03:34.555Z,0.50
2023-04-13T12:06:25.273Z,0.50
2023-04-13T12:09:17.729Z,0.50
2023-04-13T12:15:17.151Z,0.45
2023-04-13T12:18:18.132Z,0.63
2023-04-13T12:21:16.427Z,0.50
2023-04-13T12:24:06.172Z,0.30
2023-04-13T12:29:46.542Z,0.50
2023-04-13T12:32:42.172Z,0.35
2023-04-13T12:35:32.148Z,0.40
2023-04-13T12:38:21.021Z,0.45
2023-04-13T12:41:11.358Z,0.43
2023-04-13T12:44:00.053Z,0.55
2023-04-13T12:46:48.658Z,0.38
2023-04-13T12:49:37.435Z,0.40
2023-04-13T12:52:28.611Z,0.40
2023-04-13T12:55:17.716Z,0.20
2023-04-13T12:58:06.504Z,0.73
2023-04-13T13:00:55.246Z,0.30
2023-04-13T13:03:45.994Z,0.60
2023-04-13T13:06:35.102Z,0.40
2023-04-13T13:09:25.113Z,0.50
2023-04-13T13:12:13.824Z,0.35
2023-04-13T13:15:03.461Z,0.32
2023-04-13T13:17:52.124Z,0.40
2023-04-13T13:20:41.441Z,0.30
2023-04-13T13:23:30.374Z,0.75
2023-04-13T13:26:24.426Z,0.28
2023-04-13T13:29:17.541Z,1.70
2023-04-13T13:32:07.827Z,1.05
2023-04-13T13:34:56.768Z,0.75
2023-04-13T13:37:45.695Z,2.85
2023-04-13T13:40:34.830Z,1.00
2023-04-13T13:43:24.943Z,6.93
2023-04-13T13:46:13.551Z,4.63
2023-04-13T13:49:02.570Z,2.17
2023-04-13T13:51:51.464Z,2.72
2023-04-13T13:54:40.303Z,2.17
2023-04-13T13:57:29.275Z,0.90
2023-04-13T14:00:20.513Z,0.73
2023-04-13T14:03:09.404Z,0.60
2023-04-13T14:05:58.166Z,0.60
2023-04-13T14:08:47.304Z,0.50
2023-04-13T14:11:38.498Z,0.45
2023-04-13T14:14:27.193Z,0.65
2023-04-13T14:17:17.285Z,0.50
2023-04-13T14:20:08.911Z,0.57
2023-04-13T14:22:59.047Z,0.43
2023-04-13T14:25:47.764Z,0.45
2023-04-13T14:28:38.282Z,0.40
2023-04-13T14:31:27.437Z,0.85
2023-04-13T14:34:17.674Z,0.68
2023-04-13T14:37:06.535Z,0.45
2023-04-13T14:39:55.859Z,0.40
2023-04-13T14:42:46.621Z,0.60
2023-04-13T14:45:35.254Z,0.60
2023-04-13T14:48:23.930Z,0.40
2023-04-13T14:51:18.788Z,0.47
2023-04-13T14:54:07.758Z,0.70
2023-04-13T14:56:56.488Z,0.50
2023-04-13T14:59:46.059Z,0.55
2023-04-13T15:02:34.881Z,0.40
2023-04-13T15:05:23.798Z,0.55
2023-04-13T15:08:15.751Z,0.52
2023-04-13T15:11:04.474Z,0.43
2023-04-13T15:13:53.258Z,0.15
2023-04-13T15:16:41.935Z,0.60
2023-04-13T15:19:30.652Z,0.30
2023-04-13T15:22:19.251Z,0.30
2023-04-13T15:25:10.131Z,0.40
2023-04-13T15:27:59.696Z,0.47
2023-04-13T15:30:48.346Z,0.20
2023-04-13T15:33:38.039Z,0.30
2023-04-13T15:36:27.723Z,0.52
2023-04-13T15:39:16.317Z,0.30
2023-04-13T15:42:06.655Z,0.30
2023-04-13T15:44:55.435Z,0.25
2023-04-13T15:47:44.533Z,0.40
2023-04-13T15:50:33.498Z,0.20
2023-04-13T15:53:22.050Z,0.30
2023-04-13T15:56:11.282Z,0.47
2023-04-13T15:59:01.634Z,0.90
2023-04-13T16:01:51.669Z,0.38
2023-04-13T16:04:40.970Z,2.50
2023-04-13T16:07:29.670Z,0.30
2023-04-13T16:10:19.235Z,0.52
2023-04-13T16:13:18.672Z,0.55
2023-04-13T16:16:09.549Z,0.30
2023-04-13T16:18:58.804Z,0.35
2023-04-13T16:21:50.984Z,0.65
2023-04-13T16:24:41.077Z,0.30
2023-04-13T16:27:30.030Z,0.60
2023-04-13T16:30:21.048Z,0.73
2023-04-13T16:33:11.439Z,0.73
2023-04-13T16:36:02.832Z,0.40
2023-04-13T16:38:51.717Z,0.55
2023-04-13T16:41:40.394Z,0.30
2023-04-13T16:44:29.087Z,0.55
2023-04-13T16:47:17.864Z,0.60
2023-04-13T16:50:09.670Z,0.43
2023-04-13T16:52:58.528Z,0.30
2023-04-13T16:55:51.190Z,0.50
2023-04-13T16:58:40.066Z,0.80
2023-04-13T17:01:29.037Z,0.50
2023-04-13T17:04:17.884Z,0.35
2023-04-13T17:07:07.988Z,0.43
2023-04-13T17:09:57.063Z,0.40
2023-04-13T17:12:46.605Z,0.30
2023-04-13T17:15:37.595Z,0.60
2023-04-13T17:18:26.406Z,0.35
2023-04-13T17:21:14.970Z,0.43
2023-04-13T17:24:05.760Z,0.50
2023-04-13T17:26:54.933Z,0.25
2023-04-13T17:29:43.537Z,0.40
2023-04-13T17:32:32.227Z,0.50
2023-04-13T17:35:21.497Z,0.20
2023-04-13T17:38:10.129Z,0.60
2023-04-13T17:41:00.087Z,0.30
2023-04-13T17:43:48.716Z,0.40
2023-04-13T17:46:37.320Z,0.30
2023-04-13T17:49:27.939Z,0.75
2023-04-13T17:52:16.508Z,1.10
2023-04-13T17:55:05.508Z,1.63
2023-04-13T17:57:55.515Z,2.05
2023-04-13T18:00:44.587Z,2.40
2023-04-13T18:03:33.226Z,2.20
2023-04-13T18:06:22.182Z,2.53
2023-04-13T18:09:12.677Z,2.13
2023-04-13T18:12:01.350Z,3.25
2023-04-13T18:14:51.475Z,2.38
2023-04-13T18:17:40.928Z,2.53
2023-04-13T18:20:30.058Z,2.42
2023-04-13T18:23:18.749Z,1.90
2023-04-13T18:26:07.408Z,1.70
2023-04-13T18:28:56.032Z,2.13
2023-04-13T18:31:46.172Z,1.63
2023-04-13T18:34:36.397Z,1.63
2023-04-13T18:37:25.069Z,1.23
2023-04-13T18:40:15.024Z,1.35
2023-04-13T18:43:03.716Z,1.65
2023-04-13T18:45:52.324Z,1.27
2023-04-13T18:48:42.459Z,1.42
2023-04-13T18:51:32.839Z,1.25
2023-04-13T18:54:21.473Z,1.05
2023-04-13T18:57:10.573Z,1.50
2023-04-13T18:59:59.759Z,1.10
2023-04-13T19:02:49.625Z,1.33
2023-04-13T19:05:39.837Z,1.13
2023-04-13T19:08:28.539Z,0.80
2023-04-13T19:11:18.423Z,0.90
2023-04-13T19:14:06.983Z,0.73
2023-04-13T19:16:55.660Z,0.93
2023-04-13T19:19:44.416Z,1.25
2023-04-13T19:22:34.471Z,1.10
2023-04-13T19:25:23.339Z,1.20
2023-04-13T19:28:12.168Z,1.05
2023-04-13T19:31:01.350Z,1.20
2023-04-13T19:33:51.630Z,1.13
2023-04-13T19:36:41.077Z,0.90
2023-04-13T19:39:31.572Z,1.15
2023-04-13T19:42:20.201Z,1.30
2023-04-13T19:45:09.608Z,1.52
2023-04-13T19:47:58.260Z,1.30
2023-04-13T19:50:47.342Z,2.30
2023-04-13T19:53:38.122Z,1.15
2023-04-13T19:56:30.444Z,1.70
2023-04-13T19:59:19.068Z,1.80
2023-04-13T20:02:08.005Z,1.58
2023-04-13T20:04:56.752Z,2.13
2023-04-13T20:07:45.339Z,2.00
2023-04-13T20:10:34.295Z,2.00
2023-04-13T20:13:24.471Z,1.52
2023-04-13T20:16:13.163Z,2.20
2023-04-13T20:19:01.787Z,2.00
2023-04-13T20:21:51.320Z,2.15
2023-04-13T20:24:43.709Z,1.80
2023-04-13T20:27:34.240Z,2.22
2023-04-13T20:30:24.789Z,2.35
2023-04-13T20:33:16.421Z,2.30
2023-04-13T20:36:05.393Z,1.40
2023-04-13T20:38:55.022Z,1.80
2023-04-13T20:41:50.754Z,1.60
2023-04-13T20:44:44.788Z,1.65
2023-04-13T20:47:35.651Z,2.10
2023-04-13T20:50:27.584Z,2.17
2023-04-13T20:53:17.611Z,2.05
2023-04-13T20:56:07.679Z,2.30
2023-04-13T20:58:58.112Z,1.85
2023-04-13T21:01:49.059Z,2.05
2023-04-13T21:04:40.723Z,2.00
2023-04-13T21:07:29.760Z,2.22
2023-04-13T21:10:18.721Z,1.98
2023-04-13T21:13:10.542Z,2.15
2023-04-13T21:15:59.157Z,2.08
2023-04-13T21:18:47.751Z,2.13
2023-04-13T21:21:38.541Z,2.08
2023-04-13T21:24:27.102Z,2.65
2023-04-13T21:27:17.942Z,2.28
2023-04-13T21:30:07.973Z,1.98
2023-04-13T21:32:56.713Z,2.42
2023-04-13T21:35:45.540Z,2.15
2023-04-13T21:38:35.595Z,2.20
2023-04-13T21:41:24.121Z,1.80
2023-04-13T21:44:28.296Z,2.33
2023-04-13T21:47:18.162Z,1.90
2023-04-13T21:50:08.557Z,2.58
2023-04-13T21:52:57.128Z,2.13
2023-04-13T21:55:47.543Z,2.35
2023-04-13T21:58:39.910Z,2.50
2023-04-13T22:01:28.590Z,2.50
2023-04-13T22:04:17.369Z,3.08
2023-04-13T22:07:06.705Z,2.17
2023-04-13T22:09:55.768Z,2.85
2023-04-13T22:12:45.832Z,2.67
2023-04-13T22:15:34.732Z,2.20
2023-04-13T22:18:24.237Z,2.05
2023-04-13T22:21:12.927Z,2.22
2023-04-13T22:24:01.987Z,1.90
2023-04-13T22:26:51.374Z,2.40
2023-04-13T22:29:41.547Z,2.42
2023-04-13T22:32:30.528Z,2.70
2023-04-13T22:35:19.604Z,2.38
2023-04-13T22:38:08.355Z,2.35
2023-04-13T22:40:57.045Z,2.00
2023-04-13T22:43:45.873Z,2.50
2023-04-13T22:46:37.218Z,2.45
2023-04-13T22:49:27.513Z,3.20
2023-04-13T22:52:19.206Z,2.42
2023-04-13T22:55:08.217Z,3.00
2023-04-13T22:57:56.799Z,2.72
2023-04-13T23:00:45.344Z,2.58
2023-04-13T23:03:35.844Z,2.65
2023-04-13T23:06:25.214Z,2.33
2023-04-13T23:09:13.769Z,2.10
2023-04-13T23:12:02.620Z,2.65
2023-04-13T23:14:53.241Z,2.83
2023-04-13T23:17:41.962Z,2.40
2023-04-13T23:20:32.548Z,2.15
2023-04-13T23:23:21.127Z,2.13
2023-04-13T23:26:09.754Z,2.13
2023-04-13T23:28:58.714Z,2.30
2023-04-13T23:31:47.558Z,2.03
2023-04-13T23:34:36.154Z,2.15
2023-04-13T23:37:26.191Z,2.50
2023-04-13T23:40:14.982Z,2.03
2023-04-13T23:43:03.589Z,2.20
2023-04-13T23:45:52.823Z,2.00
2023-04-13T23:48:41.601Z,2.33
2023-04-13T23:51:31.222Z,1.70
2023-04-13T23:54:21.406Z,1.77
2023-04-13T23:57:11.868Z,2.25
